createdAt,value
2022-10-16T00:01:08.249Z,18.04
2022-10-16T00:03:36.704Z,17.98
2022-10-16T00:06:05.110Z,18.08
2022-10-16T00:08:34.711Z,18.10
2022-10-16T00:11:03.790Z,17.98
2022-10-16T00:13:32.506Z,18.03
2022-10-16T00:16:01.444Z,17.97
2022-10-16T00:18:29.671Z,17.98
2022-10-16T00:21:03.718Z,17.89
2022-10-16T00:23:31.507Z,17.85
2022-10-16T00:26:09.189Z,17.83
2022-10-16T00:28:37.791Z,17.89
2022-10-16T00:31:06.438Z,17.77
2022-10-16T00:33:34.361Z,17.84
2022-10-16T00:36:04.157Z,17.81
2022-10-16T00:38:31.920Z,17.82
2022-10-16T00:41:01.544Z,17.58
2022-10-16T00:43:38.621Z,17.77
2022-10-16T00:46:10.192Z,17.85
2022-10-16T00:48:38.013Z,17.66
2022-10-16T00:51:06.630Z,17.75
2022-10-16T00:53:34.533Z,17.63
2022-10-16T00:56:03.737Z,17.65
2022-10-16T00:58:31.517Z,17.70
2022-10-16T01:01:48.930Z,17.61
2022-10-16T01:04:16.783Z,17.68
2022-10-16T01:06:48.984Z,17.54
2022-10-16T01:09:19.810Z,17.56
2022-10-16T01:11:56.288Z,17.69
2022-10-16T01:14:29.552Z,17.44
2022-10-16T01:17:03.027Z,17.50
2022-10-16T01:19:46.840Z,17.55
2022-10-16T01:22:15.729Z,17.49
2022-10-16T01:27:23.323Z,17.58
2022-10-16T01:29:54.880Z,17.60
2022-10-16T01:32:36.529Z,17.57
2022-10-16T01:35:06.215Z,17.60
2022-10-16T01:37:37.713Z,17.59
2022-10-16T01:40:08.343Z,17.46
2022-10-16T01:42:40.465Z,17.38
2022-10-16T01:45:09.407Z,17.28
2022-10-16T01:47:37.718Z,17.32
2022-10-16T01:50:06.925Z,17.14
2022-10-16T01:52:36.943Z,17.03
2022-10-16T01:55:06.899Z,17.27
2022-10-16T01:57:37.872Z,17.22
2022-10-16T02:00:09.559Z,17.30
2022-10-16T02:02:37.299Z,17.23
2022-10-16T02:05:10.533Z,17.36
2022-10-16T02:07:38.331Z,17.33
2022-10-16T02:10:06.631Z,17.20
2022-10-16T02:12:35.183Z,17.08
2022-10-16T02:15:04.731Z,17.17
2022-10-16T02:17:32.371Z,17.16
2022-10-16T02:20:00.699Z,17.11
2022-10-16T02:22:32.176Z,17.03
2022-10-16T02:25:03.041Z,17.08
2022-10-16T02:27:36.005Z,17.01
2022-10-16T02:30:09.586Z,16.91
2022-10-16T02:32:40.026Z,16.69
2022-10-16T02:35:09.026Z,16.55
2022-10-16T02:37:37.235Z,16.66
2022-10-16T02:40:06.471Z,16.56
2022-10-16T02:42:35.654Z,16.68
2022-10-16T02:45:04.831Z,16.63
2022-10-16T02:47:32.556Z,16.49
2022-10-16T02:50:00.262Z,16.68
2022-10-16T02:52:29.950Z,16.63
2022-10-16T02:54:57.691Z,16.60
2022-10-16T02:57:25.709Z,16.58
2022-10-16T02:59:53.785Z,16.76
2022-10-16T03:02:22.887Z,16.69
2022-10-16T03:04:50.628Z,16.67
2022-10-16T03:07:18.405Z,16.59
2022-10-16T03:09:46.065Z,16.49
2022-10-16T03:12:14.032Z,16.68
2022-10-16T03:14:41.738Z,16.58
2022-10-16T03:17:09.460Z,16.59
2022-10-16T03:19:38.485Z,16.61
2022-10-16T03:22:06.431Z,16.55
2022-10-16T03:24:34.087Z,16.63
2022-10-16T03:27:03.985Z,16.40
2022-10-16T03:29:33.016Z,16.41
2022-10-16T03:32:00.735Z,16.57
2022-10-16T03:34:30.372Z,16.47
2022-10-16T03:36:59.380Z,16.31
2022-10-16T03:39:28.003Z,16.25
2022-10-16T03:41:55.665Z,16.51
2022-10-16T03:44:23.390Z,16.49
2022-10-16T03:46:51.079Z,16.35
2022-10-16T03:49:18.796Z,16.35
2022-10-16T03:51:46.791Z,16.37
2022-10-16T03:54:15.893Z,16.38
2022-10-16T03:56:43.577Z,16.35
2022-10-16T03:59:11.374Z,16.44
2022-10-16T04:01:39.021Z,16.56
2022-10-16T04:04:06.744Z,16.49
2022-10-16T04:06:34.399Z,16.50
2022-10-16T04:09:02.036Z,16.31
2022-10-16T04:11:31.059Z,16.32
2022-10-16T04:13:58.683Z,16.49
2022-10-16T04:16:26.343Z,16.36
2022-10-16T04:18:53.996Z,16.53
2022-10-16T04:21:21.657Z,16.38
2022-10-16T04:23:49.498Z,16.50
2022-10-16T04:26:17.428Z,16.35
2022-10-16T04:28:46.607Z,16.53
2022-10-16T04:31:14.277Z,16.32
2022-10-16T04:33:44.488Z,16.36
2022-10-16T04:36:12.401Z,16.43
2022-10-16T04:38:40.463Z,16.28
2022-10-16T04:41:08.683Z,16.38
2022-10-16T04:43:36.360Z,16.35
2022-10-16T04:46:05.970Z,16.33
2022-10-16T04:48:33.651Z,16.28
2022-10-16T04:51:01.655Z,16.31
2022-10-16T04:53:29.317Z,16.31
2022-10-16T04:55:56.964Z,16.21
2022-10-16T04:58:24.700Z,16.37
2022-10-16T05:00:52.399Z,16.37
2022-10-16T05:03:21.568Z,16.36
2022-10-16T05:05:49.361Z,16.40
2022-10-16T05:08:17.591Z,16.24
2022-10-16T05:10:45.930Z,16.27
2022-10-16T05:13:13.713Z,16.20
2022-10-16T05:15:41.444Z,16.28
2022-10-16T05:18:09.101Z,16.10
2022-10-16T05:20:38.106Z,16.11
2022-10-16T05:23:05.975Z,16.19
2022-10-16T05:25:33.692Z,16.19
2022-10-16T05:28:01.441Z,16.17
2022-10-16T05:30:29.608Z,15.96
2022-10-16T05:32:57.282Z,16.06
2022-10-16T05:35:24.992Z,16.10
2022-10-16T05:37:54.564Z,16.08
2022-10-16T05:40:22.505Z,16.03
2022-10-16T05:42:50.157Z,15.93
2022-10-16T05:45:18.054Z,15.86
2022-10-16T05:47:45.752Z,15.85
2022-10-16T05:50:13.400Z,16.00
2022-10-16T05:52:41.162Z,15.86
2022-10-16T05:55:10.632Z,15.95
2022-10-16T05:57:38.365Z,15.93
2022-10-16T06:00:07.468Z,16.00
2022-10-16T06:02:35.130Z,16.01
2022-10-16T06:05:04.208Z,15.95
2022-10-16T06:07:36.205Z,15.88
2022-10-16T06:10:04.856Z,15.95
2022-10-16T06:12:33.957Z,15.99
2022-10-16T06:15:01.680Z,15.82
2022-10-16T06:17:29.793Z,15.84
2022-10-16T06:19:57.703Z,15.65
2022-10-16T06:22:25.435Z,15.69
2022-10-16T06:24:53.219Z,15.64
2022-10-16T06:27:20.934Z,15.70
2022-10-16T06:29:50.069Z,15.76
2022-10-16T06:32:17.929Z,15.79
2022-10-16T06:34:45.625Z,15.73
2022-10-16T06:37:13.357Z,15.69
2022-10-16T06:39:41.129Z,15.69
2022-10-16T06:42:08.858Z,15.68
2022-10-16T06:44:36.553Z,15.63
2022-10-16T06:47:05.553Z,15.75
2022-10-16T06:49:33.465Z,15.69
2022-10-16T06:52:03.140Z,15.61
2022-10-16T06:54:36.505Z,15.58
2022-10-16T06:57:09.973Z,15.43
2022-10-16T06:59:37.906Z,15.50
2022-10-16T07:02:07.998Z,15.59
2022-10-16T07:04:35.870Z,15.52
2022-10-16T07:07:06.907Z,15.53
2022-10-16T07:09:37.139Z,15.69
2022-10-16T07:12:05.512Z,15.66
2022-10-16T07:14:33.309Z,15.79
2022-10-16T07:17:02.995Z,15.68
2022-10-16T07:19:34.231Z,15.82
2022-10-16T07:22:03.060Z,15.79
2022-10-16T07:24:30.726Z,15.65
2022-10-16T07:26:58.390Z,15.72
2022-10-16T07:29:26.054Z,15.85
2022-10-16T07:31:53.694Z,15.84
2022-10-16T07:34:22.500Z,15.74
2022-10-16T07:36:52.277Z,15.82
2022-10-16T07:39:20.352Z,15.98
2022-10-16T07:41:47.998Z,15.85
2022-10-16T07:44:15.649Z,15.95
2022-10-16T07:46:43.296Z,16.04
2022-10-16T07:49:11.282Z,16.06
2022-10-16T07:51:40.244Z,16.13
2022-10-16T07:54:10.275Z,16.20
2022-10-16T07:56:39.978Z,16.19
2022-10-16T07:59:10.936Z,16.20
2022-10-16T08:01:38.802Z,16.34
2022-10-16T08:04:07.143Z,16.47
2022-10-16T08:06:38.277Z,16.41
2022-10-16T08:09:06.296Z,16.57
2022-10-16T08:11:35.355Z,16.60
2022-10-16T08:14:03.112Z,16.68
2022-10-16T08:16:31.167Z,16.65
2022-10-16T08:18:58.832Z,16.69
2022-10-16T08:21:26.733Z,16.61
2022-10-16T08:23:58.393Z,16.71
2022-10-16T08:26:27.667Z,16.71
2022-10-16T08:28:57.454Z,16.76
2022-10-16T08:31:25.547Z,16.74
2022-10-16T08:33:53.547Z,16.75
2022-10-16T08:36:21.586Z,16.83
2022-10-16T08:38:50.689Z,16.83
2022-10-16T08:41:25.609Z,16.77
2022-10-16T08:44:07.032Z,16.93
2022-10-16T08:46:48.228Z,16.86
2022-10-16T08:49:18.886Z,16.86
2022-10-16T08:51:47.510Z,16.97
2022-10-16T08:54:23.865Z,17.00
2022-10-16T08:56:51.714Z,16.95
2022-10-16T08:59:21.472Z,17.01
2022-10-16T09:01:52.210Z,17.08
2022-10-16T09:04:46.618Z,17.20
2022-10-16T09:07:19.270Z,17.09
2022-10-16T09:09:59.178Z,17.18
2022-10-16T09:12:33.020Z,17.23
2022-10-16T09:15:13.977Z,17.31
2022-10-16T09:17:50.558Z,17.34
2022-10-16T09:20:35.151Z,17.29
2022-10-16T09:23:15.272Z,17.31
2022-10-16T09:25:46.498Z,17.54
2022-10-16T09:28:14.459Z,17.51
2022-10-16T09:30:43.777Z,17.53
2022-10-16T09:33:12.434Z,17.60
2022-10-16T09:35:42.290Z,17.61
2022-10-16T09:38:10.677Z,17.59
2022-10-16T09:40:40.012Z,17.66
2022-10-16T09:43:24.230Z,17.71
2022-10-16T09:46:01.747Z,17.86
2022-10-16T09:48:33.913Z,17.82
2022-10-16T09:51:04.130Z,17.84
2022-10-16T09:53:44.045Z,17.87
2022-10-16T09:56:14.707Z,17.86
2022-10-16T09:58:52.279Z,17.91
2022-10-16T10:01:22.256Z,18.09
2022-10-16T10:03:51.047Z,18.10
2022-10-16T10:06:25.074Z,18.25
2022-10-16T10:09:00.839Z,18.17
2022-10-16T10:11:44.512Z,18.25
2022-10-16T10:14:19.228Z,18.29
2022-10-16T10:16:48.985Z,18.28
2022-10-16T10:19:18.842Z,18.27
2022-10-16T10:21:47.036Z,18.43
2022-10-16T10:24:16.696Z,18.34
2022-10-16T10:26:50.735Z,18.45
2022-10-16T10:29:38.716Z,18.34
2022-10-16T10:32:18.067Z,18.45
2022-10-16T10:35:05.734Z,18.39
2022-10-16T10:37:43.034Z,18.61
2022-10-16T10:40:21.073Z,18.44
2022-10-16T10:42:52.991Z,18.45
2022-10-16T10:45:28.397Z,18.65
2022-10-16T10:48:06.679Z,18.41
2022-10-16T10:50:40.153Z,18.54
2022-10-16T10:53:14.036Z,18.74
2022-10-16T10:55:45.406Z,18.71
2022-10-16T10:58:35.947Z,18.64
2022-10-16T11:01:09.262Z,18.57
2022-10-16T11:03:58.177Z,18.62
2022-10-16T11:06:28.484Z,18.66
2022-10-16T11:09:01.585Z,18.68
2022-10-16T11:11:35.574Z,18.56
2022-10-16T11:14:07.090Z,18.57
2022-10-16T11:16:38.033Z,18.47
2022-10-16T11:19:13.121Z,18.59
2022-10-16T11:21:49.405Z,18.56
2022-10-16T11:24:22.776Z,18.67
2022-10-16T11:26:51.399Z,18.64
2022-10-16T11:29:22.901Z,18.86
2022-10-16T11:31:53.576Z,18.89
2022-10-16T11:34:26.255Z,18.85
2022-10-16T11:36:58.447Z,18.79
2022-10-16T11:39:28.085Z,18.91
2022-10-16T11:41:57.841Z,18.85
2022-10-16T11:44:46.090Z,18.93
2022-10-16T11:47:54.026Z,19.00
2022-10-16T11:50:22.739Z,19.09
2022-10-16T11:52:54.305Z,18.93
2022-10-16T11:55:23.428Z,18.85
2022-10-16T11:57:53.640Z,18.99
2022-10-16T12:00:25.017Z,18.83
2022-10-16T12:03:00.209Z,18.78
2022-10-16T12:05:36.011Z,18.89
2022-10-16T12:08:10.215Z,18.91
2022-10-16T12:13:22.701Z,18.81
2022-10-16T12:15:59.384Z,18.81
2022-10-16T12:18:27.582Z,18.86
2022-10-16T12:21:05.679Z,18.90
2022-10-16T12:23:34.441Z,18.86
2022-10-16T12:26:04.284Z,18.96
2022-10-16T12:28:36.487Z,19.03
2022-10-16T12:31:09.329Z,19.16
2022-10-16T12:33:38.717Z,19.02
2022-10-16T12:36:12.850Z,18.96
2022-10-16T12:38:48.589Z,18.90
2022-10-16T12:41:26.988Z,18.98
2022-10-16T12:43:54.741Z,19.00
2022-10-16T12:46:26.083Z,19.00
2022-10-16T12:49:08.535Z,19.03
2022-10-16T12:51:39.137Z,19.08
2022-10-16T12:54:14.699Z,19.18
2022-10-16T12:56:49.397Z,19.00
2022-10-16T12:59:27.345Z,19.07
2022-10-16T13:02:11.167Z,18.95
2022-10-16T13:04:49.494Z,19.01
2022-10-16T13:07:41.878Z,18.95
2022-10-16T13:10:17.735Z,19.04
2022-10-16T13:13:11.343Z,19.03
2022-10-16T13:15:55.160Z,18.92
2022-10-16T13:18:26.257Z,19.00
2022-10-16T13:21:02.485Z,19.05
2022-10-16T13:23:34.994Z,19.00
2022-10-16T13:26:14.763Z,18.93
2022-10-16T13:28:42.507Z,18.89
2022-10-16T13:31:16.825Z,18.99
2022-10-16T13:33:48.916Z,18.94
2022-10-16T13:36:21.693Z,18.95
2022-10-16T13:38:51.093Z,18.98
2022-10-16T13:41:21.123Z,18.87
2022-10-16T13:43:50.991Z,18.83
2022-10-16T13:46:19.842Z,18.83
2022-10-16T13:48:58.426Z,18.93
2022-10-16T13:51:26.806Z,18.98
2022-10-16T13:53:57.193Z,18.95
2022-10-16T13:56:28.547Z,18.99
2022-10-16T13:59:02.674Z,19.03
2022-10-16T14:01:32.818Z,19.00
2022-10-16T14:04:06.847Z,19.07
2022-10-16T14:06:35.314Z,19.05
2022-10-16T14:09:08.361Z,19.12
2022-10-16T14:11:40.097Z,19.11
2022-10-16T14:14:08.018Z,19.09
2022-10-16T14:16:35.938Z,19.23
2022-10-16T14:19:08.402Z,19.18
2022-10-16T14:21:36.650Z,19.16
2022-10-16T14:24:14.080Z,19.20
2022-10-16T14:26:49.650Z,19.21
2022-10-16T14:29:20.795Z,19.20
2022-10-16T14:31:57.133Z,19.14
2022-10-16T14:34:31.467Z,19.15
2022-10-16T14:37:03.163Z,19.29
2022-10-16T14:39:32.517Z,19.15
2022-10-16T14:42:00.974Z,19.14
2022-10-16T14:44:33.163Z,19.12
2022-10-16T14:47:09.277Z,19.11
2022-10-16T14:49:37.246Z,19.11
2022-10-16T14:52:10.272Z,19.20
2022-10-16T14:54:39.746Z,19.10
2022-10-16T14:57:07.948Z,19.04
2022-10-16T14:59:37.854Z,18.97
2022-10-16T15:02:19.171Z,19.04
2022-10-16T15:04:47.367Z,19.00
2022-10-16T15:07:15.289Z,19.04
2022-10-16T15:09:48.227Z,19.05
2022-10-16T15:12:17.479Z,18.99
2022-10-16T15:14:45.508Z,19.05
2022-10-16T15:17:14.619Z,18.95
2022-10-16T15:19:44.436Z,18.97
2022-10-16T15:22:13.384Z,19.09
2022-10-16T15:24:41.261Z,19.09
2022-10-16T15:27:10.478Z,18.98
2022-10-16T15:29:38.428Z,19.02
2022-10-16T15:32:06.631Z,19.05
2022-10-16T15:34:34.522Z,18.98
2022-10-16T15:37:04.809Z,18.92
2022-10-16T15:39:32.629Z,19.00
2022-10-16T15:42:00.557Z,19.09
2022-10-16T15:44:31.166Z,19.10
2022-10-16T15:46:58.897Z,19.06
2022-10-16T15:49:26.597Z,19.10
2022-10-16T15:51:55.829Z,19.10
2022-10-16T15:54:23.827Z,19.13
2022-10-16T15:56:51.781Z,19.09
2022-10-16T15:59:19.557Z,19.06
2022-10-16T16:01:48.628Z,19.06
2022-10-16T16:04:42.427Z,19.06
2022-10-16T16:07:08.101Z,19.06
2022-10-16T16:09:35.860Z,18.99
2022-10-16T16:12:04.651Z,18.97
2022-10-16T16:14:32.563Z,18.99
2022-10-16T16:17:07.687Z,19.00
2022-10-16T16:19:35.733Z,18.99
2022-10-16T16:22:08.224Z,19.02
2022-10-16T16:24:38.797Z,19.04
2022-10-16T16:27:06.503Z,19.04
2022-10-16T16:29:34.203Z,19.07
2022-10-16T16:32:03.644Z,19.09
2022-10-16T16:34:31.483Z,19.08
2022-10-16T16:36:59.180Z,19.10
2022-10-16T16:39:27.040Z,19.12
2022-10-16T16:41:54.730Z,19.04
2022-10-16T16:44:22.447Z,19.02
2022-10-16T16:46:50.083Z,19.01
2022-10-16T16:49:19.271Z,19.08
2022-10-16T16:51:46.938Z,19.06
2022-10-16T16:54:14.847Z,19.11
2022-10-16T16:56:43.930Z,19.10
2022-10-16T16:59:16.028Z,19.11
2022-10-16T17:01:43.827Z,19.10
2022-10-16T17:04:12.400Z,19.06
2022-10-16T17:06:41.552Z,19.08
2022-10-16T17:09:10.408Z,19.06
2022-10-16T17:11:38.081Z,19.07
2022-10-16T17:14:06.310Z,19.09
2022-10-16T17:16:36.103Z,19.11
2022-10-16T17:19:04.910Z,19.09
2022-10-16T17:21:34.086Z,19.08
2022-10-16T17:24:03.995Z,19.10
2022-10-16T17:26:32.140Z,19.09
2022-10-16T17:29:02.966Z,18.95
2022-10-16T17:31:32.587Z,18.95
2022-10-16T17:34:00.856Z,19.00
2022-10-16T17:36:33.066Z,18.89
2022-10-16T17:39:04.173Z,18.88
2022-10-16T17:41:37.906Z,18.91
2022-10-16T17:44:06.863Z,18.92
2022-10-16T17:46:38.388Z,18.87
2022-10-16T17:49:08.906Z,18.79
2022-10-16T17:51:36.612Z,18.73
2022-10-16T17:54:04.665Z,18.65
2022-10-16T17:56:32.837Z,18.49
2022-10-16T17:59:08.483Z,18.45
2022-10-16T18:01:40.231Z,18.48
2022-10-16T18:04:09.654Z,18.57
2022-10-16T18:06:38.520Z,18.39
2022-10-16T18:09:07.908Z,18.34
2022-10-16T18:11:35.745Z,18.38
2022-10-16T18:14:06.883Z,18.29
2022-10-16T18:16:36.398Z,18.24
2022-10-16T18:19:04.426Z,18.39
2022-10-16T18:21:32.192Z,18.39
2022-10-16T18:24:03.862Z,18.42
2022-10-16T18:26:31.815Z,18.46
2022-10-16T18:29:00.416Z,18.36
2022-10-16T18:31:31.085Z,18.26
2022-10-16T18:33:59.003Z,18.15
2022-10-16T18:36:29.357Z,18.09
2022-10-16T18:38:57.496Z,18.03
2022-10-16T18:41:25.397Z,18.00
2022-10-16T18:43:53.089Z,17.98
2022-10-16T18:46:22.502Z,17.96
2022-10-16T18:48:52.204Z,17.93
2022-10-16T18:51:22.175Z,17.92
2022-10-16T18:53:51.485Z,17.88
2022-10-16T18:56:20.954Z,17.82
2022-10-16T18:58:49.164Z,17.73
2022-10-16T19:01:20.704Z,17.73
2022-10-16T19:03:48.872Z,17.69
2022-10-16T19:06:18.181Z,17.66
2022-10-16T19:08:45.847Z,17.68
2022-10-16T19:11:15.808Z,17.66
2022-10-16T19:13:43.871Z,17.65
2022-10-16T19:16:21.743Z,17.67
2022-10-16T19:18:50.672Z,17.82
2022-10-16T19:21:20.097Z,17.91
2022-10-16T19:23:47.845Z,17.71
2022-10-16T19:26:17.023Z,17.70
2022-10-16T19:28:45.690Z,17.62
2022-10-16T19:31:15.207Z,17.56
2022-10-16T19:33:43.179Z,17.52
2022-10-16T19:36:12.304Z,17.54
2022-10-16T19:38:42.160Z,17.49
2022-10-16T19:41:10.897Z,17.47
2022-10-16T19:43:39.337Z,17.41
2022-10-16T19:46:08.352Z,17.41
2022-10-16T19:48:36.270Z,17.41
2022-10-16T19:51:05.051Z,17.40
2022-10-16T19:53:33.272Z,17.43
2022-10-16T19:56:02.286Z,17.42
2022-10-16T19:58:29.941Z,17.32
2022-10-16T20:00:59.011Z,17.51
2022-10-16T20:03:26.812Z,17.58
2022-10-16T20:05:56.565Z,17.66
2022-10-16T20:08:25.076Z,17.56
2022-10-16T20:10:54.422Z,17.49
2022-10-16T20:13:24.021Z,17.41
2022-10-16T20:15:51.818Z,17.42
2022-10-16T20:18:19.548Z,17.38
2022-10-16T20:20:50.912Z,17.30
2022-10-16T20:23:18.738Z,17.29
2022-10-16T20:25:46.814Z,17.38
2022-10-16T20:28:16.425Z,17.40
2022-10-16T20:30:46.513Z,17.42
2022-10-16T20:33:14.752Z,17.40
2022-10-16T20:35:44.155Z,17.39
2022-10-16T20:38:12.476Z,17.27
2022-10-16T20:40:42.440Z,17.25
2022-10-16T20:43:12.801Z,17.26
2022-10-16T20:45:40.625Z,17.28
2022-10-16T20:48:11.037Z,17.24
2022-10-16T20:50:39.396Z,17.21
2022-10-16T20:53:07.287Z,17.36
2022-10-16T20:55:36.477Z,17.42
2022-10-16T20:58:05.559Z,17.27
2022-10-16T21:00:33.404Z,17.18
2022-10-16T21:03:01.262Z,17.20
2022-10-16T21:05:33.064Z,17.18
2022-10-16T21:08:00.899Z,17.28
2022-10-16T21:10:30.565Z,17.26
2022-10-16T21:12:58.199Z,17.24
2022-10-16T21:15:25.968Z,17.11
2022-10-16T21:17:54.590Z,17.09
2022-10-16T21:20:22.275Z,17.23
2022-10-16T21:22:51.251Z,17.24
2022-10-16T21:25:19.296Z,17.19
2022-10-16T21:27:47.315Z,17.15
2022-10-16T21:30:15.279Z,17.11
2022-10-16T21:32:43.113Z,17.13
2022-10-16T21:35:10.774Z,17.13
2022-10-16T21:37:38.448Z,17.10
2022-10-16T21:40:08.972Z,17.09
2022-10-16T21:42:36.646Z,17.02
2022-10-16T21:45:04.701Z,17.02
2022-10-16T21:47:33.876Z,17.00
2022-10-16T21:50:01.827Z,17.01
2022-10-16T21:52:30.519Z,16.99
2022-10-16T21:54:58.562Z,16.98
2022-10-16T21:57:28.245Z,17.12
2022-10-16T21:59:57.108Z,17.19
2022-10-16T22:02:25.353Z,17.18
2022-10-16T22:04:53.417Z,17.03
2022-10-16T22:07:21.153Z,17.03
2022-10-16T22:09:48.893Z,17.03
2022-10-16T22:12:19.564Z,17.00
2022-10-16T22:14:48.786Z,17.06
2022-10-16T22:17:16.566Z,17.06
2022-10-16T22:19:44.358Z,17.01
2022-10-16T22:22:12.116Z,17.07
2022-10-16T22:24:39.857Z,17.05
2022-10-16T22:27:07.654Z,17.02
2022-10-16T22:29:35.406Z,16.95
2022-10-16T22:32:04.623Z,16.97
2022-10-16T22:34:32.332Z,16.95
2022-10-16T22:36:59.981Z,16.94
2022-10-16T22:39:28.109Z,16.98
2022-10-16T22:41:55.909Z,16.95
2022-10-16T22:44:23.604Z,16.99
2022-10-16T22:46:51.563Z,17.10
2022-10-16T22:49:20.702Z,17.10
2022-10-16T22:51:48.831Z,17.08
2022-10-16T22:54:16.552Z,17.05
2022-10-16T22:56:44.232Z,17.07
2022-10-16T22:59:12.485Z,17.08
2022-10-16T23:01:41.501Z,17.02
2022-10-16T23:04:09.269Z,17.02
2022-10-16T23:06:38.439Z,17.00
2022-10-16T23:09:06.271Z,17.06
2022-10-16T23:11:33.950Z,17.13
2022-10-16T23:14:03.444Z,16.93
2022-10-16T23:16:31.117Z,16.84
2022-10-16T23:18:59.231Z,16.90
2022-10-16T23:21:27.157Z,16.89
2022-10-16T23:23:56.424Z,16.93
2022-10-16T23:26:26.473Z,16.99
2022-10-16T23:28:56.516Z,16.99
2022-10-16T23:31:24.769Z,17.02
2022-10-16T23:33:52.606Z,16.98
2022-10-16T23:36:21.937Z,16.98
2022-10-16T23:38:49.686Z,16.94
2022-10-16T23:41:19.507Z,16.96
2022-10-16T23:43:47.637Z,17.04
2022-10-16T23:46:16.131Z,17.01
2022-10-16T23:48:44.153Z,17.05
2022-10-16T23:51:12.152Z,17.03
2022-10-16T23:53:39.873Z,17.03
2022-10-16T23:56:08.219Z,16.98
2022-10-16T23:58:37.509Z,17.06
